Time;durP1;ratioP1;P1;durP2;ratioP2;P2;SDS_P1;SDS_P2;PMS_P1;PMS_P2;Temp;Humidity;BMP_temperature;BMP_pressure;BME280_temperature;BME280_humidity;BME280_pressure;Samples;Min_cycle;Max_cycle;Signal;HPM_P1;HPM_P2
2022/03/13 00:02:09;;;;;;;27.63;16.58;;;;;;;7.46;61.88;101934.53;5018628;28;102061;-86
2022/03/13 00:04:36;;;;;;;24.88;15.93;;;;;;;7.45;61.46;101933.72;5013148;28;102003;-86
2022/03/13 00:07:09;;;;;;;25.10;16.17;;;;;;;7.45;61.60;101931.00;5018943;28;102402;-86
2022/03/13 00:09:56;;;;;;;27.45;14.88;;;;;;;7.45;61.45;101928.28;5015264;28;104767;-87
2022/03/13 00:12:31;;;;;;;24.20;15.38;;;;;;;7.45;61.57;101928.28;5017410;28;102163;-87
2022/03/13 00:15:01;;;;;;;24.02;15.95;;;;;;;7.44;62.32;101915.81;5016743;28;101891;-86
2022/03/13 00:17:29;;;;;;;22.02;15.25;;;;;;;7.44;61.38;101913.09;5017876;28;102015;-87
2022/03/13 00:20:00;;;;;;;22.58;15.00;;;;;;;7.44;61.64;101910.38;5013223;28;104211;-86
2022/03/13 00:22:29;;;;;;;24.52;15.00;;;;;;;7.45;62.30;101912.03;4997843;28;102474;-87
2022/03/13 00:24:58;;;;;;;22.55;14.70;;;;;;;7.45;61.84;101912.03;5001221;28;102058;-87
2022/03/13 00:27:25;;;;;;;24.85;14.90;;;;;;;7.45;62.07;101912.03;5017117;28;102567;-87
2022/03/13 00:29:52;;;;;;;26.02;15.02;;;;;;;7.46;62.44;101912.88;5009776;28;103845;-83
2022/03/13 00:32:19;;;;;;;21.42;14.15;;;;;;;7.45;62.02;101911.22;4995487;28;101989;-84
2022/03/13 00:34:47;;;;;;;24.10;15.65;;;;;;;7.45;62.06;101905.78;5001308;28;102433;-84
2022/03/13 00:37:14;;;;;;;24.75;14.82;;;;;;;7.45;62.00;101905.78;5015801;28;102419;-85
2022/03/13 00:39:41;;;;;;;22.02;13.82;;;;;;;7.45;61.56;101906.63;5013917;28;103819;-86
2022/03/13 00:42:08;;;;;;;25.05;14.07;;;;;;;7.46;61.21;101902.03;5007978;28;102448;-85
2022/03/13 00:44:34;;;;;;;22.33;13.52;;;;;;;7.45;61.43;101901.22;5006924;28;102644;-85
2022/03/13 00:47:01;;;;;;;20.25;13.38;;;;;;;7.46;62.00;101904.75;5014802;28;102250;-84
2022/03/13 00:49:27;;;;;;;20.65;13.65;;;;;;;7.45;61.66;101895.78;5013526;28;104106;-84
2022/03/13 00:51:56;;;;;;;21.92;13.43;;;;;;;7.46;61.65;101897.47;5013033;28;101941;-84
2022/03/13 00:54:23;;;;;;;21.05;13.95;;;;;;;7.45;61.67;101895.78;5001475;28;102347;-83
2022/03/13 00:56:49;;;;;;;22.85;12.77;;;;;;;7.46;61.69;101899.31;5007238;28;103262;-84
2022/03/13 00:59:17;;;;;;;25.83;13.65;;;;;;;7.45;62.05;101895.78;5012247;28;103966;-84
2022/03/13 01:01:43;;;;;;;20.15;13.05;;;;;;;7.45;61.80;101903.91;5014368;28;102888;-84
2022/03/13 01:04:10;;;;;;;20.35;13.30;;;;;;;7.46;61.44;101900.19;4989128;28;102687;-85
2022/03/13 01:06:37;;;;;;;21.27;12.82;;;;;;;7.46;62.01;101897.47;5008916;28;102353;-84
2022/03/13 01:09:05;;;;;;;21.05;13.25;;;;;;;7.46;61.29;101902.88;5013346;28;104135;-84
2022/03/13 01:11:32;;;;;;;19.38;12.90;;;;;;;7.46;62.06;101902.88;5014236;28;102023;-83
2022/03/13 01:13:58;;;;;;;19.17;12.48;;;;;;;7.46;61.55;101902.88;5013783;28;102062;-84
2022/03/13 01:16:29;;;;;;;19.05;12.75;;;;;;;7.46;61.85;101913.72;5014969;28;102545;-83
2022/03/13 01:18:58;;;;;;;18.25;11.80;;;;;;;7.46;62.38;101904.75;5012351;28;104801;-83
2022/03/13 01:21:26;;;;;;;20.20;13.07;;;;;;;7.46;61.70;101907.44;5012831;28;102740;-84
2022/03/13 01:24:19;;;;;;;19.17;11.60;;;;;;;7.46;62.31;101908.31;5014021;28;102508;-85
2022/03/13 01:26:53;;;;;;;20.45;12.57;;;;;;;7.46;61.79;101908.31;5003344;28;102590;-86
2022/03/13 01:29:20;;;;;;;18.20;11.40;;;;;;;7.46;62.52;101919.13;5010052;28;104865;-82
2022/03/13 01:31:49;;;;;;;18.25;12.32;;;;;;;7.46;61.38;101908.31;5015005;28;102357;-82
2022/03/13 01:34:36;;;;;;;19.67;12.90;;;;;;;7.47;62.56;101909.94;5014064;28;102401;-82
2022/03/13 01:37:08;;;;;;;18.42;12.00;;;;;;;7.46;61.90;101913.72;5014909;28;102332;-82
2022/03/13 01:39:35;;;;;;;;;;;;;;;7.46;61.52;101913.72;5011598;28;103953;-84
2022/03/13 01:42:03;;;;;;;17.27;11.50;;;;;;;7.46;62.03;101908.31;5014863;28;102474;-84
2022/03/13 01:44:30;;;;;;;19.90;11.80;;;;;;;7.47;62.24;101914.53;5013114;28;102420;-84
2022/03/13 01:46:57;;;;;;;19.02;11.82;;;;;;;7.46;62.14;101915.56;5003368;28;102137;-84
2022/03/13 01:49:24;;;;;;;16.95;11.10;;;;;;;7.46;62.22;101919.13;5006132;28;104041;-83
2022/03/13 01:51:52;;;;;;;18.27;11.70;;;;;;;7.46;62.21;101916.44;5008931;28;102198;-84
2022/03/13 01:54:18;;;;;;;18.10;12.02;;;;;;;7.45;62.59;101922.88;5008224;28;102223;-84
2022/03/13 01:56:47;;;;;;;18.83;11.90;;;;;;;7.46;62.42;101919.13;5007791;28;103044;-84
2022/03/13 01:59:14;;;;;;;14.93;10.40;;;;;;;7.46;61.97;101919.13;4997482;28;104105;-84
2022/03/13 02:01:44;;;;;;;16.63;10.23;;;;;;;7.46;62.35;101919.13;4998881;28;102665;-84
2022/03/13 02:04:12;;;;;;;16.52;11.48;;;;;;;7.46;62.47;101916.44;5009693;28;102507;-84
2022/03/13 02:06:42;;;;;;;16.00;10.60;;;;;;;7.47;61.61;101918.06;5014997;28;102288;-84
2022/03/13 02:09:12;;;;;;;19.27;11.98;;;;;;;7.46;61.77;101907.44;5013383;28;103934;-84
2022/03/13 02:12:01;;;;;;;17.60;11.27;;;;;;;7.47;61.92;101917.25;5013356;28;102379;-84
2022/03/13 02:14:28;;;;;;;15.43;10.65;;;;;;;7.46;61.93;101919.13;5012522;28;102130;-84
2022/03/13 02:16:55;;;;;;;16.45;10.55;;;;;;;7.47;61.99;101919.97;4996817;28;102486;-84
2022/03/13 02:19:21;;;;;;;16.42;11.07;;;;;;;7.47;61.87;101922.66;5013113;28;104140;-84
2022/03/13 02:21:59;;;;;;;15.88;10.27;;;;;;;7.47;61.90;101928.91;5012693;28;102643;-84
2022/03/13 02:24:28;;;;;;;16.08;10.63;;;;;;;7.46;61.63;101927.25;5013229;28;102316;-84
2022/03/13 02:26:59;;;;;;;14.82;10.43;;;;;;;7.47;61.95;101930.78;5013728;28;102150;-84
2022/03/13 02:29:27;;;;;;;14.82;10.43;;;;;;;7.47;61.98;101931.63;5012768;28;104039;-84
2022/03/13 02:31:55;;;;;;;14.90;10.77;;;;;;;7.46;62.20;101921.84;5012616;28;102346;-84
2022/03/13 02:34:22;;;;;;;16.08;10.30;;;;;;;7.45;61.84;101936.41;4992371;28;102035;-84
2022/03/13 02:36:58;;;;;;;17.25;10.40;;;;;;;7.47;62.00;101937.03;4994659;28;101958;-84
2022/03/13 02:39:25;;;;;;;15.82;9.55;;;;;;;7.45;62.70;101931.00;4992669;28;103845;-83
2022/03/13 02:41:53;;;;;;;16.83;10.48;;;;;;;7.46;61.80;101942.66;4992352;28;102436;-84
2022/03/13 02:44:19;;;;;;;13.43;9.68;;;;;;;7.47;62.02;101938.91;4992850;28;101988;-84
2022/03/13 02:46:55;;;;;;;15.05;9.90;;;;;;;7.47;62.37;101941.63;4993771;28;103768;-84
2022/03/13 02:49:24;;;;;;;14.65;10.05;;;;;;;7.46;61.38;101940.81;4990319;28;104121;-84
2022/03/13 02:51:53;;;;;;;14.20;9.88;;;;;;;7.46;61.94;101939.94;4979854;28;102007;-84
2022/03/13 02:54:20;;;;;;;14.17;9.43;;;;;;;7.46;62.16;101939.94;4992608;28;102399;-84
2022/03/13 02:56:47;;;;;;;15.77;9.70;;;;;;;7.46;62.44;101939.94;4973841;28;102425;-84
2022/03/13 02:59:15;;;;;;;13.13;9.35;;;;;;;7.46;62.20;101943.50;4977749;28;104155;-84
2022/03/13 03:01:43;;;;;;;15.82;9.93;;;;;;;7.47;61.97;101953.28;5003083;28;102038;-84
2022/03/13 03:04:10;;;;;;;15.23;9.60;;;;;;;7.46;61.98;101945.38;4991894;28;102550;-84
2022/03/13 03:06:40;;;;;;;15.77;10.30;;;;;;;7.47;62.13;101953.28;4993532;28;102144;-84
2022/03/13 03:09:08;;;;;;;13.55;9.45;;;;;;;7.46;61.68;101950.78;4991499;28;103909;-83
2022/03/13 03:11:35;;;;;;;13.40;9.70;;;;;;;7.46;61.80;101946.22;4992251;28;102549;-84
2022/03/13 03:14:02;;;;;;;14.70;9.50;;;;;;;7.46;62.62;101951.63;4991760;28;102414;-84
2022/03/13 03:16:30;;;;;;;14.63;9.50;;;;;;;7.47;62.22;101941.63;4992817;28;102464;-84
2022/03/13 03:18:57;;;;;;;13.27;9.32;;;;;;;7.46;62.49;101943.50;4992391;28;104177;-84
2022/03/13 03:21:24;;;;;;;12.35;9.38;;;;;;;7.45;62.30;101944.53;4993774;28;102178;-84
2022/03/13 03:23:54;;;;;;;12.50;8.77;;;;;;;7.46;62.40;101946.22;4990964;28;102239;-84
2022/03/13 03:26:20;;;;;;;13.10;9.02;;;;;;;7.47;61.85;101952.47;4993819;28;102201;-84
2022/03/13 03:28:52;;;;;;;10.80;8.20;;;;;;;7.46;62.57;101954.34;4992567;28;104252;-84
2022/03/13 03:31:19;;;;;;;12.52;8.55;;;;;;;7.46;62.42;101948.94;4993380;28;102129;-84
2022/03/13 03:34:10;;;;;;;11.90;8.32;;;;;;;7.46;61.95;101951.63;5009653;28;102213;-84
2022/03/13 03:36:43;;;;;;;11.80;8.25;;;;;;;7.46;62.51;101942.66;5008737;28;103693;-84
2022/03/13 03:39:11;;;;;;;12.02;8.13;;;;;;;7.46;62.10;101948.94;5012610;28;103938;-84
2022/03/13 03:41:38;;;;;;;14.07;8.73;;;;;;;7.47;62.38;101958.72;5010937;28;102695;-84
2022/03/13 03:44:07;;;;;;;13.13;9.00;;;;;;;7.46;61.90;101958.91;5004295;28;102266;-84
2022/03/13 03:46:34;;;;;;;12.07;8.95;;;;;;;7.47;61.96;101957.88;5010658;28;104621;-84
2022/03/13 03:49:08;;;;;;;12.82;8.85;;;;;;;7.46;62.25;101958.91;5007230;28;103856;-84
2022/03/13 03:51:36;;;;;;;13.57;8.23;;;;;;;7.46;62.43;101959.75;5011469;28;102530;-84
2022/03/13 03:54:04;;;;;;;10.63;7.80;;;;;;;7.47;61.69;101957.88;5003017;28;101929;-84
2022/03/13 03:56:30;;;;;;;13.43;8.75;;;;;;;7.46;61.96;101970.59;5005184;28;102213;-84
2022/03/13 03:58:57;;;;;;;11.82;8.23;;;;;;;7.46;61.85;101951.63;5000245;28;104009;-84
2022/03/13 04:01:24;;;;;;;12.07;8.02;;;;;;;7.47;62.06;101972.25;5012588;28;102273;-84
2022/03/13 04:03:53;;;;;;;11.43;8.48;;;;;;;7.47;62.07;101968.72;5008451;28;102350;-84
2022/03/13 04:06:21;;;;;;;13.30;8.07;;;;;;;7.46;62.46;101962.47;5005189;28;102316;-84
2022/03/13 04:08:48;;;;;;;13.18;8.07;;;;;;;7.46;62.61;101961.63;5011738;28;103905;-84
2022/03/13 04:11:21;;;;;;;10.60;7.97;;;;;;;7.46;61.72;101967.91;5011998;28;101901;-84
2022/03/13 04:13:47;;;;;;;11.40;7.97;;;;;;;7.46;62.55;101973.31;5012007;28;102484;-84
2022/03/13 04:16:13;;;;;;;10.60;8.02;;;;;;;7.45;63.08;101966.22;5008612;28;102271;-84
2022/03/13 04:18:40;;;;;;;12.30;7.75;;;;;;;7.46;61.83;101970.59;5010203;28;104801;-83
2022/03/13 04:21:07;;;;;;;12.90;8.68;;;;;;;7.46;61.92;101970.59;5015333;28;102277;-83
2022/03/13 04:23:35;;;;;;;11.50;8.10;;;;;;;7.46;62.64;101973.31;5015379;28;102239;-84
2022/03/13 04:26:03;;;;;;;12.02;8.35;;;;;;;7.47;62.04;101977.66;5015762;28;102358;-83
2022/03/13 04:28:30;;;;;;;13.32;9.07;;;;;;;7.46;62.08;101976.00;5013728;28;104448;-83
2022/03/13 04:30:59;;;;;;;12.32;8.65;;;;;;;7.46;62.52;101977.88;5015239;28;102075;-84
2022/03/13 04:33:27;;;;;;;11.43;8.43;;;;;;;7.46;61.94;101976.00;5013977;28;102413;-84
2022/03/13 04:36:00;;;;;;;11.83;9.47;;;;;;;7.46;62.79;101973.31;5016262;28;102297;-83
2022/03/13 04:38:28;;;;;;;10.60;8.00;;;;;;;7.46;62.82;101978.72;5014142;28;103876;-84
2022/03/13 04:40:57;;;;;;;11.65;8.80;;;;;;;7.47;62.34;101977.66;5015449;28;102249;-84
2022/03/13 04:43:24;;;;;;;11.50;8.75;;;;;;;7.46;61.80;101973.31;5015477;28;102287;-83
2022/03/13 04:45:51;;;;;;;12.73;9.23;;;;;;;7.46;62.75;101981.44;5015916;28;102725;-83
2022/03/13 04:48:18;;;;;;;13.68;9.27;;;;;;;7.47;62.41;101985.78;5014202;28;103774;-84
2022/03/13 04:50:45;;;;;;;12.10;9.07;;;;;;;7.47;61.62;101980.38;5014461;28;102292;-83
2022/03/13 04:53:13;;;;;;;10.70;8.30;;;;;;;7.46;62.24;101986.84;5012326;28;102449;-81
2022/03/13 04:55:39;;;;;;;13.48;8.45;;;;;;;7.47;62.20;101991.22;5014938;28;102113;-81
2022/03/13 04:58:08;;;;;;;10.95;7.93;;;;;;;7.49;61.96;101990.16;4996550;28;103900;-82
2022/03/13 05:00:37;;;;;;;13.67;8.93;;;;;;;7.48;62.90;101989.31;5014768;28;102058;-82
2022/03/13 05:03:05;;;;;;;10.68;7.63;;;;;;;7.49;62.30;101998.28;5014913;28;101947;-82
2022/03/13 05:05:34;;;;;;;12.88;8.73;;;;;;;7.49;62.53;101995.56;5015950;28;102758;-82
2022/03/13 05:08:01;;;;;;;11.73;8.20;;;;;;;7.50;62.36;101999.94;5014807;28;104087;-82
2022/03/13 05:10:36;;;;;;;12.45;8.63;;;;;;;7.49;62.30;102003.69;5015167;28;102459;-82
2022/03/13 05:13:05;;;;;;;10.40;8.02;;;;;;;7.50;62.76;102003.50;5014812;28;101903;-81
2022/03/13 05:15:34;;;;;;;11.60;8.13;;;;;;;7.51;62.53;101997.03;5015767;28;102131;-81
2022/03/13 05:18:01;;;;;;;10.77;8.10;;;;;;;7.52;62.68;102004.09;5015061;28;103920;-81
2022/03/13 05:20:28;;;;;;;11.32;8.25;;;;;;;7.53;62.55;102004.91;5014865;28;102364;-81
2022/03/13 05:22:56;;;;;;;10.75;8.02;;;;;;;7.54;62.49;102014.72;5014977;28;102810;-82
2022/03/13 05:25:24;;;;;;;10.55;8.35;;;;;;;7.55;62.82;102013.66;5015600;28;102365;-84
2022/03/13 05:27:51;;;;;;;11.57;8.35;;;;;;;7.55;63.16;102019.09;5013617;28;103913;-84
2022/03/13 05:30:18;;;;;;;10.05;7.75;;;;;;;7.56;62.21;102018.03;5014832;28;101994;-84
2022/03/13 05:32:46;;;;;;;12.00;8.07;;;;;;;7.57;63.29;102016.97;5013296;28;102530;-85
2022/03/13 05:35:13;;;;;;;11.32;7.55;;;;;;;7.58;63.52;102018.66;5015883;28;102390;-83
2022/03/13 05:37:40;;;;;;;12.40;8.20;;;;;;;7.59;63.06;102017.59;5013967;28;103900;-83
2022/03/13 05:40:10;;;;;;;10.15;7.80;;;;;;;7.60;63.51;102021.94;5010028;28;102094;-83
2022/03/13 05:42:37;;;;;;;10.80;8.43;;;;;;;7.60;63.24;102017.34;5012702;28;102246;-83
2022/03/13 05:45:04;;;;;;;12.73;8.00;;;;;;;7.61;62.49;102020.91;5008603;28;102100;-83
2022/03/13 05:47:31;;;;;;;10.85;7.88;;;;;;;7.60;62.73;102021.94;4996746;28;103636;-83
2022/03/13 05:50:00;;;;;;;13.85;8.27;;;;;;;7.61;63.09;102029.03;5004865;28;102023;-83
2022/03/13 05:52:26;;;;;;;13.03;8.10;;;;;;;7.60;62.87;102027.38;5016638;28;102378;-83
2022/03/13 05:54:53;;;;;;;11.20;8.82;;;;;;;7.61;62.83;102031.72;5015127;28;102295;-83
2022/03/13 05:57:20;;;;;;;11.40;8.05;;;;;;;7.61;62.48;102031.72;5008767;28;103658;-83
2022/03/13 05:59:46;;;;;;;10.07;7.93;;;;;;;7.60;62.95;102043.63;4999594;28;102401;-83
2022/03/13 06:02:13;;;;;;;9.88;7.78;;;;;;;7.61;62.87;102045.28;5014914;28;102304;-83
2022/03/13 06:04:40;;;;;;;10.70;7.95;;;;;;;7.61;62.83;102045.28;5016070;28;102574;-83
2022/03/13 06:07:08;;;;;;;11.40;7.57;;;;;;;7.59;63.38;102042.81;5011951;28;103984;-83
2022/03/13 06:09:37;;;;;;;10.43;7.72;;;;;;;7.60;62.27;102043.63;5015730;28;102171;-83
2022/03/13 06:12:05;;;;;;;10.43;7.60;;;;;;;7.59;63.05;102048.22;5015142;28;102016;-83
2022/03/13 06:14:31;;;;;;;10.15;7.88;;;;;;;7.59;63.00;102047.41;5015578;28;102303;-83
2022/03/13 06:17:18;;;;;;;11.00;8.60;;;;;;;7.59;61.96;102044.69;5010771;28;104913;-85
2022/03/13 06:19:46;;;;;;;10.73;7.90;;;;;;;7.59;62.57;102050.09;5014973;28;102328;-82
2022/03/13 06:22:14;;;;;;;10.73;7.57;;;;;;;7.59;62.78;102055.53;5006814;28;102503;-81
2022/03/13 06:24:40;;;;;;;12.02;8.30;;;;;;;7.58;62.09;102057.41;5010742;28;102452;-81
2022/03/13 06:27:08;;;;;;;11.02;8.00;;;;;;;7.58;62.52;102057.41;5006750;28;103949;-82
2022/03/13 06:29:34;;;;;;;9.38;7.35;;;;;;;7.59;62.35;102064.47;5011915;28;102081;-81
2022/03/13 06:32:01;;;;;;;10.73;7.97;;;;;;;7.59;62.73;102060.94;5008468;28;103714;-82
2022/03/13 06:34:28;;;;;;;10.50;7.97;;;;;;;7.58;62.46;102054.69;5010364;28;102067;-82
2022/03/13 06:36:55;;;;;;;11.48;7.97;;;;;;;7.59;62.65;102055.53;5011042;28;103970;-81
2022/03/13 06:39:23;;;;;;;9.77;7.70;;;;;;;7.58;62.56;102062.81;5009609;28;102370;-82
2022/03/13 06:41:50;;;;;;;9.65;7.30;;;;;;;7.60;62.72;102068.00;5013074;28;102456;-81
2022/03/13 06:44:17;;;;;;;11.57;8.23;;;;;;;7.59;62.55;102069.06;5009755;28;103470;-81
2022/03/13 06:46:44;;;;;;;10.18;7.38;;;;;;;7.60;62.91;102068.84;5010595;28;103824;-82
2022/03/13 06:49:10;;;;;;;11.05;7.70;;;;;;;7.60;62.72;102065.31;5013078;28;102458;-82
2022/03/13 06:51:40;;;;;;;12.15;7.50;;;;;;;7.59;62.65;102071.78;5000477;28;102470;-82
2022/03/13 06:54:06;;;;;;;;;;;;;;;7.60;62.38;102070.72;5000739;28;102620;-82
2022/03/13 06:56:35;;;;;;;9.85;7.47;;;;;;;7.60;62.81;102070.72;4998864;28;104101;-82
2022/03/13 06:59:05;;;;;;;9.68;6.95;;;;;;;7.59;63.01;102071.78;5019788;28;102690;-82
2022/03/13 07:01:33;;;;;;;9.00;7.53;;;;;;;7.60;62.60;102081.56;5006527;28;102360;-82
2022/03/13 07:04:00;;;;;;;10.48;8.07;;;;;;;7.60;62.92;102076.13;5020381;28;102112;-82
2022/03/13 07:06:27;;;;;;;11.15;7.97;;;;;;;7.61;62.26;102077.78;5017104;28;103954;-81
2022/03/13 07:08:59;;;;;;;11.20;7.93;;;;;;;7.61;62.87;102077.78;5014383;28;102321;-81
2022/03/13 07:11:26;;;;;;;10.80;7.32;;;;;;;7.61;62.97;102077.78;5007774;28;102568;-82
2022/03/13 07:13:55;;;;;;;11.45;7.22;;;;;;;7.61;63.41;102083.22;5019892;28;102419;-81
2022/03/13 07:16:21;;;;;;;9.73;7.18;;;;;;;7.62;62.58;102082.19;4997693;28;104009;-82
2022/03/13 07:18:48;;;;;;;9.38;7.55;;;;;;;7.61;62.23;102081.34;5017338;28;101881;-82
2022/03/13 07:21:14;;;;;;;10.27;7.20;;;;;;;7.62;62.28;102082.19;5015712;28;102279;-81
2022/03/13 07:23:40;;;;;;;11.02;8.00;;;;;;;7.62;62.60;102082.19;5014101;28;102577;-81
2022/03/13 07:26:07;;;;;;;9.65;7.47;;;;;;;7.63;62.42;102091.97;4994618;28;103967;-82
2022/03/13 07:28:34;;;;;;;9.48;7.25;;;;;;;7.64;62.19;102085.47;5010309;28;101836;-82
2022/03/13 07:31:02;;;;;;;10.10;7.55;;;;;;;7.64;63.08;102090.91;5000060;28;102390;-82
2022/03/13 07:33:29;;;;;;;10.52;7.78;;;;;;;7.64;62.75;102090.91;4995929;28;102554;-82
2022/03/13 07:35:56;;;;;;;10.35;7.60;;;;;;;7.65;62.46;102089.88;5000577;28;104144;-82
2022/03/13 07:38:22;;;;;;;8.88;7.28;;;;;;;7.64;62.24;102091.72;5001165;28;102756;-82
2022/03/13 07:40:49;;;;;;;11.50;7.38;;;;;;;7.65;62.57;102100.72;4999542;28;102297;-82
2022/03/13 07:43:17;;;;;;;9.63;7.68;;;;;;;7.65;62.98;102089.88;5012961;28;102423;-82
2022/03/13 07:45:43;;;;;;;9.18;6.85;;;;;;;7.66;63.23;102102.38;5003800;28;104185;-82
2022/03/13 07:48:11;;;;;;;12.18;7.45;;;;;;;7.67;62.54;102098.59;5011825;28;102098;-82
2022/03/13 07:50:38;;;;;;;10.55;7.22;;;;;;;7.68;62.55;102100.25;5009058;28;102071;-82
2022/03/13 07:53:05;;;;;;;10.70;7.28;;;;;;;7.69;62.47;102107.34;5015459;28;102206;-82
2022/03/13 07:55:31;;;;;;;14.77;7.28;;;;;;;7.68;62.25;102105.69;5011087;28;104026;-83
2022/03/13 07:57:58;;;;;;;9.57;6.65;;;;;;;7.68;62.40;102105.69;5002524;28;101958;-83
2022/03/13 08:00:24;;;;;;;10.55;7.38;;;;;;;7.68;63.09;102106.53;4993189;28;102548;-83
2022/03/13 08:02:53;;;;;;;9.65;7.13;;;;;;;7.68;62.93;102111.09;5014248;28;102110;-83
2022/03/13 08:05:22;;;;;;;10.77;7.53;;;;;;;7.67;63.28;102110.25;5012577;28;104091;-83
2022/03/13 08:07:50;;;;;;;13.13;8.07;;;;;;;7.67;62.88;102104.84;5013003;28;102186;-83
2022/03/13 08:10:24;;;;;;;8.90;6.85;;;;;;;7.67;62.69;102104.03;5008326;28;102453;-82
2022/03/13 08:13:08;;;;;;;9.23;6.68;;;;;;;7.68;62.14;102116.50;5014820;28;102324;-82
2022/03/13 08:15:35;;;;;;;9.50;7.25;;;;;;;7.68;62.11;102105.69;5012677;28;103083;-83
2022/03/13 08:18:02;;;;;;;10.52;6.97;;;;;;;7.67;62.92;102120.28;5012493;28;102363;-83
2022/03/13 08:20:31;;;;;;;10.23;7.80;;;;;;;7.67;62.71;102121.09;5001844;28;102221;-82
2022/03/13 08:22:58;;;;;;;9.05;6.95;;;;;;;7.67;62.32;102120.28;5005318;28;102183;-83
2022/03/13 08:25:25;;;;;;;10.07;7.50;;;;;;;7.66;63.39;102124.03;5010887;28;103021;-82
2022/03/13 08:27:51;;;;;;;9.23;7.03;;;;;;;7.66;62.76;102130.28;5013760;28;102319;-82
2022/03/13 08:30:18;;;;;;;9.38;7.13;;;;;;;7.67;62.87;102136.53;5015038;28;102204;-82
2022/03/13 08:32:45;;;;;;;8.52;6.63;;;;;;;7.66;63.28;102133.00;5014246;28;102288;-81
2022/03/13 08:35:12;;;;;;;8.52;6.97;;;;;;;7.67;62.65;102136.53;5005284;28;104119;-82
2022/03/13 08:37:40;;;;;;;9.55;7.20;;;;;;;7.67;62.48;102131.13;5011843;28;102706;-82
2022/03/13 08:40:09;;;;;;;8.27;6.75;;;;;;;7.66;62.74;102134.88;5014308;28;102437;-81
2022/03/13 08:42:35;;;;;;;10.68;7.55;;;;;;;7.66;62.63;102143.00;5014810;28;102133;-82
2022/03/13 08:45:02;;;;;;;10.95;7.75;;;;;;;7.65;63.35;102133.22;5014293;28;103815;-82
2022/03/13 08:47:29;;;;;;;8.65;6.78;;;;;;;7.66;62.37;102137.59;5013927;28;102617;-82
2022/03/13 08:49:56;;;;;;;11.40;7.22;;;;;;;7.66;62.80;102140.31;5014501;28;102273;-81
2022/03/13 08:52:23;;;;;;;8.93;7.07;;;;;;;7.66;62.93;102134.88;5011649;28;102556;-81
2022/03/13 08:54:55;;;;;;;9.05;6.53;;;;;;;7.65;62.51;102138.66;4991642;28;103839;-82
2022/03/13 08:57:42;;;;;;;9.05;7.20;;;;;;;7.65;62.78;102147.59;5008229;28;102540;-82
2022/03/13 09:00:10;;;;;;;9.50;7.30;;;;;;;7.66;62.53;102146.56;5014866;28;102324;-82
2022/03/13 09:02:37;;;;;;;10.98;7.28;;;;;;;7.67;62.65;102147.38;5015663;28;102652;-81
2022/03/13 09:05:05;;;;;;;8.98;6.85;;;;;;;7.67;62.63;102150.09;5014584;28;104072;-82
2022/03/13 09:07:32;;;;;;;8.95;6.78;;;;;;;7.68;62.36;102149.03;5013807;28;102485;-81
2022/03/13 09:10:02;;;;;;;10.25;7.35;;;;;;;7.69;62.73;102145.28;5014461;28;101867;-81
2022/03/13 09:12:31;;;;;;;9.02;6.57;;;;;;;7.70;62.21;102141.53;5013781;28;102417;-82
2022/03/13 09:14:57;;;;;;;8.30;4.93;;;;;;;7.71;62.45;102148.59;4997708;28;103794;-81
2022/03/13 09:17:24;;;;;;;8.50;6.82;;;;;;;7.71;62.95;102146.72;4995364;28;102692;-81
2022/03/13 09:19:50;;;;;;;8.18;6.50;;;;;;;7.70;62.33;102142.34;5001096;28;102046;-81
2022/03/13 09:22:18;;;;;;;8.93;6.50;;;;;;;7.69;62.51;102145.28;5015563;28;102752;-82
2022/03/13 09:24:48;;;;;;;9.02;7.13;;;;;;;7.70;62.29;102146.94;5014170;28;104064;-81
2022/03/13 09:27:16;;;;;;;10.05;7.32;;;;;;;7.70;62.98;102155.91;5014690;28;102118;-82
2022/03/13 09:29:43;;;;;;;9.23;7.28;;;;;;;7.70;62.83;102146.94;5013403;28;102507;-81
2022/03/13 09:32:09;;;;;;;9.02;6.70;;;;;;;7.70;62.26;102149.66;5014915;28;102195;-82
2022/03/13 09:34:36;;;;;;;9.88;7.32;;;;;;;7.70;62.98;102152.38;5012903;28;104230;-81
2022/03/13 09:37:03;;;;;;;8.38;6.75;;;;;;;7.70;63.08;102150.47;5008537;28;101901;-81
2022/03/13 09:39:30;;;;;;;9.65;7.13;;;;;;;7.69;62.50;102146.13;5018224;28;102015;-81
2022/03/13 09:41:56;;;;;;;7.68;6.82;;;;;;;7.70;62.20;102152.38;5008019;28;102207;-81
2022/03/13 09:44:25;;;;;;;9.32;6.95;;;;;;;7.69;63.14;102150.72;5012684;28;103834;-81
2022/03/13 09:46:51;;;;;;;8.40;6.40;;;;;;;7.69;62.92;102156.97;4997678;28;102006;-81
2022/03/13 09:49:20;;;;;;;10.43;7.30;;;;;;;7.69;62.36;102161.56;5007817;28;102505;-82
2022/03/13 09:51:47;;;;;;;9.48;7.75;;;;;;;7.71;62.44;102164.84;4989437;28;103026;-82
2022/03/13 09:54:13;;;;;;;10.07;6.97;;;;;;;7.69;62.80;102156.97;5011680;28;103939;-82
2022/03/13 09:56:40;;;;;;;9.40;6.80;;;;;;;7.68;62.45;102159.88;5001271;28;101969;-82
2022/03/13 09:59:07;;;;;;;8.55;6.47;;;;;;;7.68;62.95;102168.00;4994266;28;102380;-82
2022/03/13 10:01:36;;;;;;;10.57;7.00;;;;;;;7.70;62.32;102163.22;5009798;28;102165;-81
2022/03/13 10:04:04;;;;;;;10.75;7.40;;;;;;;7.68;63.01;102163.44;4992958;28;103916;-81
2022/03/13 10:06:33;;;;;;;11.35;7.15;;;;;;;7.69;62.48;102162.38;5009873;28;102361;-81
2022/03/13 10:09:26;;;;;;;9.63;6.82;;;;;;;7.68;62.86;102160.72;5007562;28;101900;-81
2022/03/13 10:12:04;;;;;;;9.65;7.25;;;;;;;7.68;62.80;102155.31;5015195;28;102504;-82
2022/03/13 10:14:31;;;;;;;9.27;7.43;;;;;;;7.70;62.85;102157.78;4994740;28;103871;-82
2022/03/13 10:17:00;;;;;;;9.82;7.15;;;;;;;7.70;62.49;102160.50;5016051;28;102426;-81
2022/03/13 10:19:45;;;;;;;9.93;7.65;;;;;;;7.68;63.02;102155.31;5010807;28;102676;-82
2022/03/13 10:22:12;;;;;;;9.43;7.28;;;;;;;7.70;63.30;102152.38;5012047;28;102150;-81
2022/03/13 10:24:40;;;;;;;10.95;7.63;;;;;;;7.69;63.02;102153.41;5000721;28;104137;-81
2022/03/13 10:27:12;;;;;;;9.45;7.32;;;;;;;7.69;62.07;102156.97;4992571;28;101958;-81
2022/03/13 10:29:39;;;;;;;9.43;7.35;;;;;;;7.69;62.71;102156.97;5005914;28;102559;-81
2022/03/13 10:32:07;;;;;;;10.43;7.70;;;;;;;7.69;62.67;102156.97;5005878;28;102130;-81
2022/03/13 10:34:34;;;;;;;10.17;7.20;;;;;;;7.69;62.04;102161.56;5011861;28;103954;-82
2022/03/13 10:37:02;;;;;;;9.93;7.13;;;;;;;7.70;61.91;102160.50;5009422;28;103415;-81
2022/03/13 10:39:30;;;;;;;11.38;8.00;;;;;;;7.69;62.28;102156.97;5011392;28;102936;-81
2022/03/13 10:42:03;;;;;;;9.93;7.50;;;;;;;7.70;62.59;102163.22;5007847;28;102700;-81
2022/03/13 10:44:36;;;;;;;10.02;7.72;;;;;;;7.70;62.74;102157.78;5001622;28;103883;-81
2022/03/13 10:47:05;;;;;;;9.98;7.70;;;;;;;7.69;62.60;102162.38;5006844;28;102236;-81
2022/03/13 10:49:41;;;;;;;10.52;7.72;;;;;;;7.69;62.79;102161.56;5006776;28;102974;-81
2022/03/13 10:52:24;;;;;;;11.18;7.82;;;;;;;7.69;62.14;102156.13;5010589;28;102323;-81
2022/03/13 10:54:52;;;;;;;11.77;7.50;;;;;;;7.68;62.63;102155.31;5006388;28;104126;-81
2022/03/13 10:57:19;;;;;;;9.55;6.70;;;;;;;7.69;62.77;102161.56;5010879;28;102186;-81
2022/03/13 11:00:05;;;;;;;11.30;7.75;;;;;;;7.68;62.65;102158.00;5011343;28;102653;-82
2022/03/13 11:02:32;;;;;;;11.02;8.20;;;;;;;7.70;63.09;102157.78;5011908;28;102688;-81
2022/03/13 11:05:00;;;;;;;10.00;7.72;;;;;;;7.69;62.60;102161.56;5013397;28;104074;-81
2022/03/13 11:07:27;;;;;;;11.57;7.68;;;;;;;7.69;62.75;102151.53;5013468;28;101866;-81
2022/03/13 11:09:54;;;;;;;8.90;6.90;;;;;;;7.69;62.69;102156.97;5013428;28;102721;-82
2022/03/13 11:12:21;;;;;;;10.45;7.85;;;;;;;7.69;62.39;102156.97;5013897;28;102326;-81
2022/03/13 11:14:51;;;;;;;11.30;7.55;;;;;;;7.71;63.33;102162.16;5013030;28;103912;-82
2022/03/13 11:17:19;;;;;;;;;;;;;;;7.70;62.83;102157.78;5013803;28;102690;-81
2022/03/13 11:19:49;;;;;;;9.98;7.07;;;;;;;7.70;62.71;102153.19;5010647;28;102415;-81
2022/03/13 11:22:20;;;;;;;10.35;7.80;;;;;;;7.69;62.73;102154.25;5017112;28;102165;-80
2022/03/13 11:24:48;;;;;;;10.25;7.63;;;;;;;7.70;62.21;102157.78;4995776;28;102972;-81